sensor_id;sensor_type;location;lat;lon;timestamp;P1;P2;P0
62591;PMS5003;48659;41.622;2.276;2023-04-06T00:00:27;14;11;
62591;PMS5003;48659;41.622;2.276;2023-04-06T00:02:54;14;13;
62591;PMS5003;48659;41.622;2.276;2023-04-06T00:05:21;19;16;
62591;PMS5003;48659;41.622;2.276;2023-04-06T00:07:49;13;13;
62591;PMS5003;48659;41.622;2.276;2023-04-06T00:10:16;16;15;
62591;PMS5003;48659;41.622;2.276;2023-04-06T00:12:43;15;15;
62591;PMS5003;48659;41.622;2.276;2023-04-06T00:15:11;17;16;
62591;PMS5003;48659;41.622;2.276;2023-04-06T00:17:38;15;15;
62591;PMS5003;48659;41.622;2.276;2023-04-06T00:20:06;13;13;
62591;PMS5003;48659;41.622;2.276;2023-04-06T00:22:35;15;13;
62591;PMS5003;48659;41.622;2.276;2023-04-06T00:25:03;12;12;
62591;PMS5003;48659;41.622;2.276;2023-04-06T00:27:31;14;13;
62591;PMS5003;48659;41.622;2.276;2023-04-06T00:29:58;13;13;
62591;PMS5003;48659;41.622;2.276;2023-04-06T00:32:25;18;18;
62591;PMS5003;48659;41.622;2.276;2023-04-06T00:35:01;14;11;
62591;PMS5003;48659;41.622;2.276;2023-04-06T00:37:28;12;12;
62591;PMS5003;48659;41.622;2.276;2023-04-06T00:40:02;16;14;
62591;PMS5003;48659;41.622;2.276;2023-04-06T00:42:29;17;14;
62591;PMS5003;48659;41.622;2.276;2023-04-06T00:44:57;16;15;
62591;PMS5003;48659;41.622;2.276;2023-04-06T00:47:26;15;15;
62591;PMS5003;48659;41.622;2.276;2023-04-06T00:49:54;15;15;
62591;PMS5003;48659;41.622;2.276;2023-04-06T00:52:21;15;15;
62591;PMS5003;48659;41.622;2.276;2023-04-06T00:54:49;18;16;
62591;PMS5003;48659;41.622;2.276;2023-04-06T00:57:18;15;14;
62591;PMS5003;48659;41.622;2.276;2023-04-06T00:59:46;16;13;
62591;PMS5003;48659;41.622;2.276;2023-04-06T01:02:13;18;15;
62591;PMS5003;48659;41.622;2.276;2023-04-06T01:04:40;16;16;
62591;PMS5003;48659;41.622;2.276;2023-04-06T01:07:08;17;16;
62591;PMS5003;48659;41.622;2.276;2023-04-06T01:09:35;17;16;
62591;PMS5003;48659;41.622;2.276;2023-04-06T01:12:03;19;17;
62591;PMS5003;48659;41.622;2.276;2023-04-06T01:14:30;18;18;
62591;PMS5003;48659;41.622;2.276;2023-04-06T01:17:01;19;19;
62591;PMS5003;48659;41.622;2.276;2023-04-06T01:19:29;16;15;
62591;PMS5003;48659;41.622;2.276;2023-04-06T01:22:00;17;15;
62591;PMS5003;48659;41.622;2.276;2023-04-06T01:24:28;18;16;
62591;PMS5003;48659;41.622;2.276;2023-04-06T01:26:56;21;18;
62591;PMS5003;48659;41.622;2.276;2023-04-06T01:29:23;18;18;
62591;PMS5003;48659;41.622;2.276;2023-04-06T01:31:51;24;20;
62591;PMS5003;48659;41.622;2.276;2023-04-06T01:34:19;17;17;
62591;PMS5003;48659;41.622;2.276;2023-04-06T01:36:46;22;19;
62591;PMS5003;48659;41.622;2.276;2023-04-06T01:39:14;17;16;
62591;PMS5003;48659;41.622;2.276;2023-04-06T01:41:41;16;16;
62591;PMS5003;48659;41.622;2.276;2023-04-06T01:44:09;18;16;
62591;PMS5003;48659;41.622;2.276;2023-04-06T01:46:36;19;18;
62591;PMS5003;48659;41.622;2.276;2023-04-06T01:49:04;24;21;
62591;PMS5003;48659;41.622;2.276;2023-04-06T01:51:31;21;16;
62591;PMS5003;48659;41.622;2.276;2023-04-06T01:54:01;21;19;
62591;PMS5003;48659;41.622;2.276;2023-04-06T01:56:29;18;16;
62591;PMS5003;48659;41.622;2.276;2023-04-06T01:58:56;19;17;
62591;PMS5003;48659;41.622;2.276;2023-04-06T02:01:23;17;17;
62591;PMS5003;48659;41.622;2.276;2023-04-06T02:03:50;21;17;
62591;PMS5003;48659;41.622;2.276;2023-04-06T02:06:18;20;18;
62591;PMS5003;48659;41.622;2.276;2023-04-06T02:08:46;20;19;
62591;PMS5003;48659;41.622;2.276;2023-04-06T02:11:13;18;18;
62591;PMS5003;48659;41.622;2.276;2023-04-06T02:13:40;21;19;
62591;PMS5003;48659;41.622;2.276;2023-04-06T02:16:08;20;17;
62591;PMS5003;48659;41.622;2.276;2023-04-06T02:18:35;18;17;
62591;PMS5003;48659;41.622;2.276;2023-04-06T02:21:02;17;17;
62591;PMS5003;48659;41.622;2.276;2023-04-06T02:23:30;14;14;
62591;PMS5003;48659;41.622;2.276;2023-04-06T02:25:57;16;16;
62591;PMS5003;48659;41.622;2.276;2023-04-06T02:28:24;22;21;
62591;PMS5003;48659;41.622;2.276;2023-04-06T02:30:51;23;19;
62591;PMS5003;48659;41.622;2.276;2023-04-06T02:33:20;18;17;
62591;PMS5003;48659;41.622;2.276;2023-04-06T02:35:48;24;21;
62591;PMS5003;48659;41.622;2.276;2023-04-06T02:38:15;19;17;
62591;PMS5003;48659;41.622;2.276;2023-04-06T02:40:43;17;17;
62591;PMS5003;48659;41.622;2.276;2023-04-06T02:43:11;19;19;
62591;PMS5003;48659;41.622;2.276;2023-04-06T02:45:37;16;16;
62591;PMS5003;48659;41.622;2.276;2023-04-06T02:48:05;25;20;
62591;PMS5003;48659;41.622;2.276;2023-04-06T02:50:33;24;19;
62591;PMS5003;48659;41.622;2.276;2023-04-06T02:53:00;20;20;
62591;PMS5003;48659;41.622;2.276;2023-04-06T02:55:27;22;18;
62591;PMS5003;48659;41.622;2.276;2023-04-06T02:57:55;20;19;
62591;PMS5003;48659;41.622;2.276;2023-04-06T03:00:22;15;15;
62591;PMS5003;48659;41.622;2.276;2023-04-06T03:02:50;17;17;
62591;PMS5003;48659;41.622;2.276;2023-04-06T03:05:18;19;19;
62591;PMS5003;48659;41.622;2.276;2023-04-06T03:07:45;21;18;
62591;PMS5003;48659;41.622;2.276;2023-04-06T03:10:13;19;17;
62591;PMS5003;48659;41.622;2.276;2023-04-06T03:12:40;20;18;
62591;PMS5003;48659;41.622;2.276;2023-04-06T03:15:07;20;15;
62591;PMS5003;48659;41.622;2.276;2023-04-06T03:17:35;17;17;
62591;PMS5003;48659;41.622;2.276;2023-04-06T03:20:03;21;19;
62591;PMS5003;48659;41.622;2.276;2023-04-06T03:22:30;18;16;
62591;PMS5003;48659;41.622;2.276;2023-04-06T03:24:58;19;18;
62591;PMS5003;48659;41.622;2.276;2023-04-06T03:27:25;26;23;
62591;PMS5003;48659;41.622;2.276;2023-04-06T03:29:53;23;18;
62591;PMS5003;48659;41.622;2.276;2023-04-06T03:32:20;19;18;
62591;PMS5003;48659;41.622;2.276;2023-04-06T03:34:47;22;21;
62591;PMS5003;48659;41.622;2.276;2023-04-06T03:37:15;19;18;
62591;PMS5003;48659;41.622;2.276;2023-04-06T03:39:42;19;18;
62591;PMS5003;48659;41.622;2.276;2023-04-06T03:42:09;22;19;
62591;PMS5003;48659;41.622;2.276;2023-04-06T03:44:36;15;15;
62591;PMS5003;48659;41.622;2.276;2023-04-06T03:47:04;13;13;
62591;PMS5003;48659;41.622;2.276;2023-04-06T03:49:32;16;16;
62591;PMS5003;48659;41.622;2.276;2023-04-06T03:52:00;13;12;
62591;PMS5003;48659;41.622;2.276;2023-04-06T03:54:28;12;12;
62591;PMS5003;48659;41.622;2.276;2023-04-06T03:56:55;13;13;
62591;PMS5003;48659;41.622;2.276;2023-04-06T03:59:24;17;17;
62591;PMS5003;48659;41.622;2.276;2023-04-06T04:01:51;12;12;
62591;PMS5003;48659;41.622;2.276;2023-04-06T04:04:18;11;10;
62591;PMS5003;48659;41.622;2.276;2023-04-06T04:06:45;12;11;
62591;PMS5003;48659;41.622;2.276;2023-04-06T04:09:13;14;11;
62591;PMS5003;48659;41.622;2.276;2023-04-06T04:11:40;12;9;
62591;PMS5003;48659;41.622;2.276;2023-04-06T04:14:08;9;9;
62591;PMS5003;48659;41.622;2.276;2023-04-06T04:16:35;12;12;
62591;PMS5003;48659;41.622;2.276;2023-04-06T04:19:02;8;8;
62591;PMS5003;48659;41.622;2.276;2023-04-06T04:21:31;17;17;
62591;PMS5003;48659;41.622;2.276;2023-04-06T04:23:58;13;13;
62591;PMS5003;48659;41.622;2.276;2023-04-06T04:26:25;15;13;
62591;PMS5003;48659;41.622;2.276;2023-04-06T04:28:54;15;13;
62591;PMS5003;48659;41.622;2.276;2023-04-06T04:31:21;16;15;
62591;PMS5003;48659;41.622;2.276;2023-04-06T04:33:48;14;13;
62591;PMS5003;48659;41.622;2.276;2023-04-06T04:36:16;15;14;
62591;PMS5003;48659;41.622;2.276;2023-04-06T04:38:44;16;14;
62591;PMS5003;48659;41.622;2.276;2023-04-06T04:41:11;13;13;
62591;PMS5003;48659;41.622;2.276;2023-04-06T04:43:38;15;15;
62591;PMS5003;48659;41.622;2.276;2023-04-06T04:46:05;14;13;
62591;PMS5003;48659;41.622;2.276;2023-04-06T04:48:33;15;15;
62591;PMS5003;48659;41.622;2.276;2023-04-06T04:51:00;17;14;
62591;PMS5003;48659;41.622;2.276;2023-04-06T04:53:28;13;13;
62591;PMS5003;48659;41.622;2.276;2023-04-06T04:55:55;15;14;
62591;PMS5003;48659;41.622;2.276;2023-04-06T04:58:22;16;16;
62591;PMS5003;48659;41.622;2.276;2023-04-06T05:00:50;21;20;
62591;PMS5003;48659;41.622;2.276;2023-04-06T05:03:18;21;20;
62591;PMS5003;48659;41.622;2.276;2023-04-06T05:05:49;19;18;
62591;PMS5003;48659;41.622;2.276;2023-04-06T05:08:18;18;17;
62591;PMS5003;48659;41.622;2.276;2023-04-06T05:10:45;14;13;
62591;PMS5003;48659;41.622;2.276;2023-04-06T05:13:13;18;15;
62591;PMS5003;48659;41.622;2.276;2023-04-06T05:15:40;20;19;
62591;PMS5003;48659;41.622;2.276;2023-04-06T05:18:08;17;17;
62591;PMS5003;48659;41.622;2.276;2023-04-06T05:20:36;14;13;
62591;PMS5003;48659;41.622;2.276;2023-04-06T05:23:06;18;15;
62591;PMS5003;48659;41.622;2.276;2023-04-06T05:25:33;19;16;
62591;PMS5003;48659;41.622;2.276;2023-04-06T05:28:01;16;16;
62591;PMS5003;48659;41.622;2.276;2023-04-06T05:30:28;21;20;
62591;PMS5003;48659;41.622;2.276;2023-04-06T05:32:55;18;17;
62591;PMS5003;48659;41.622;2.276;2023-04-06T05:35:22;19;19;
62591;PMS5003;48659;41.622;2.276;2023-04-06T05:37:50;23;23;
62591;PMS5003;48659;41.622;2.276;2023-04-06T05:40:18;21;19;
62591;PMS5003;48659;41.622;2.276;2023-04-06T05:42:45;22;20;
62591;PMS5003;48659;41.622;2.276;2023-04-06T05:45:12;24;19;
62591;PMS5003;48659;41.622;2.276;2023-04-06T05:47:39;15;14;
62591;PMS5003;48659;41.622;2.276;2023-04-06T05:50:07;16;13;
62591;PMS5003;48659;41.622;2.276;2023-04-06T05:52:35;14;12;
62591;PMS5003;48659;41.622;2.276;2023-04-06T05:55:02;13;11;
62591;PMS5003;48659;41.622;2.276;2023-04-06T05:57:31;10;10;
62591;PMS5003;48659;41.622;2.276;2023-04-06T05:59:58;16;13;
62591;PMS5003;48659;41.622;2.276;2023-04-06T06:02:25;15;14;
62591;PMS5003;48659;41.622;2.276;2023-04-06T06:04:52;14;13;
62591;PMS5003;48659;41.622;2.276;2023-04-06T06:07:19;13;12;
62591;PMS5003;48659;41.622;2.276;2023-04-06T06:09:47;22;16;
62591;PMS5003;48659;41.622;2.276;2023-04-06T06:12:14;12;12;
62591;PMS5003;48659;41.622;2.276;2023-04-06T06:14:41;14;13;
62591;PMS5003;48659;41.622;2.276;2023-04-06T06:17:08;15;15;
62591;PMS5003;48659;41.622;2.276;2023-04-06T06:19:35;18;18;
62591;PMS5003;48659;41.622;2.276;2023-04-06T06:22:03;17;13;
62591;PMS5003;48659;41.622;2.276;2023-04-06T06:24:31;18;18;
62591;PMS5003;48659;41.622;2.276;2023-04-06T06:26:58;18;18;
62591;PMS5003;48659;41.622;2.276;2023-04-06T06:29:25;17;15;
62591;PMS5003;48659;41.622;2.276;2023-04-06T06:31:53;18;17;
62591;PMS5003;48659;41.622;2.276;2023-04-06T06:34:20;20;20;
62591;PMS5003;48659;41.622;2.276;2023-04-06T06:36:48;19;17;
62591;PMS5003;48659;41.622;2.276;2023-04-06T06:39:16;17;17;
62591;PMS5003;48659;41.622;2.276;2023-04-06T06:41:43;18;15;
62591;PMS5003;48659;41.622;2.276;2023-04-06T06:44:10;20;15;
62591;PMS5003;48659;41.622;2.276;2023-04-06T06:46:38;20;16;
62591;PMS5003;48659;41.622;2.276;2023-04-06T06:49:05;22;19;
62591;PMS5003;48659;41.622;2.276;2023-04-06T06:51:33;18;17;
62591;PMS5003;48659;41.622;2.276;2023-04-06T06:54:00;16;15;
62591;PMS5003;48659;41.622;2.276;2023-04-06T06:56:28;27;25;
62591;PMS5003;48659;41.622;2.276;2023-04-06T06:58:55;20;17;
62591;PMS5003;48659;41.622;2.276;2023-04-06T07:01:22;25;23;
62591;PMS5003;48659;41.622;2.276;2023-04-06T07:03:50;22;19;
62591;PMS5003;48659;41.622;2.276;2023-04-06T07:06:17;19;17;
62591;PMS5003;48659;41.622;2.276;2023-04-06T07:08:44;21;20;
62591;PMS5003;48659;41.622;2.276;2023-04-06T07:11:12;18;17;
62591;PMS5003;48659;41.622;2.276;2023-04-06T07:13:39;22;20;
62591;PMS5003;48659;41.622;2.276;2023-04-06T07:16:06;20;18;
62591;PMS5003;48659;41.622;2.276;2023-04-06T07:18:34;20;20;
62591;PMS5003;48659;41.622;2.276;2023-04-06T07:21:01;20;18;
62591;PMS5003;48659;41.622;2.276;2023-04-06T07:23:28;19;19;
62591;PMS5003;48659;41.622;2.276;2023-04-06T07:25:55;21;17;
62591;PMS5003;48659;41.622;2.276;2023-04-06T07:28:23;23;23;
62591;PMS5003;48659;41.622;2.276;2023-04-06T07:30:50;26;25;
62591;PMS5003;48659;41.622;2.276;2023-04-06T07:33:17;17;16;
62591;PMS5003;48659;41.622;2.276;2023-04-06T07:35:45;16;16;
62591;PMS5003;48659;41.622;2.276;2023-04-06T07:38:13;17;17;
62591;PMS5003;48659;41.622;2.276;2023-04-06T07:40:41;19;16;
62591;PMS5003;48659;41.622;2.276;2023-04-06T07:43:08;15;13;
62591;PMS5003;48659;41.622;2.276;2023-04-06T07:45:35;15;14;
62591;PMS5003;48659;41.622;2.276;2023-04-06T07:48:02;15;15;
62591;PMS5003;48659;41.622;2.276;2023-04-06T07:50:31;15;15;
62591;PMS5003;48659;41.622;2.276;2023-04-06T07:52:58;16;15;
62591;PMS5003;48659;41.622;2.276;2023-04-06T07:55:26;16;15;
62591;PMS5003;48659;41.622;2.276;2023-04-06T07:57:53;17;15;
62591;PMS5003;48659;41.622;2.276;2023-04-06T08:00:21;19;18;
62591;PMS5003;48659;41.622;2.276;2023-04-06T08:02:49;18;18;
62591;PMS5003;48659;41.622;2.276;2023-04-06T08:05:16;20;20;
62591;PMS5003;48659;41.622;2.276;2023-04-06T08:07:44;19;17;
62591;PMS5003;48659;41.622;2.276;2023-04-06T08:10:11;14;13;
62591;PMS5003;48659;41.622;2.276;2023-04-06T08:12:39;18;18;
62591;PMS5003;48659;41.622;2.276;2023-04-06T08:15:06;22;17;
62591;PMS5003;48659;41.622;2.276;2023-04-06T08:17:34;21;21;
62591;PMS5003;48659;41.622;2.276;2023-04-06T08:20:01;17;17;
62591;PMS5003;48659;41.622;2.276;2023-04-06T08:22:29;20;20;
62591;PMS5003;48659;41.622;2.276;2023-04-06T08:24:56;21;17;
62591;PMS5003;48659;41.622;2.276;2023-04-06T08:27:23;20;16;
62591;PMS5003;48659;41.622;2.276;2023-04-06T08:29:50;16;16;
62591;PMS5003;48659;41.622;2.276;2023-04-06T08:32:18;19;17;
62591;PMS5003;48659;41.622;2.276;2023-04-06T08:34:45;16;16;
62591;PMS5003;48659;41.622;2.276;2023-04-06T08:37:12;16;16;
62591;PMS5003;48659;41.622;2.276;2023-04-06T08:39:40;16;14;
62591;PMS5003;48659;41.622;2.276;2023-04-06T08:42:10;19;17;
62591;PMS5003;48659;41.622;2.276;2023-04-06T08:44:43;16;16;
62591;PMS5003;48659;41.622;2.276;2023-04-06T08:47:11;19;19;
62591;PMS5003;48659;41.622;2.276;2023-04-06T08:49:38;21;21;
62591;PMS5003;48659;41.622;2.276;2023-04-06T08:52:06;20;20;
62591;PMS5003;48659;41.622;2.276;2023-04-06T08:54:34;26;26;
62591;PMS5003;48659;41.622;2.276;2023-04-06T08:57:02;27;24;
62591;PMS5003;48659;41.622;2.276;2023-04-06T08:59:31;22;21;
62591;PMS5003;48659;41.622;2.276;2023-04-06T09:01:59;22;22;
62591;PMS5003;48659;41.622;2.276;2023-04-06T09:04:29;26;24;
62591;PMS5003;48659;41.622;2.276;2023-04-06T09:06:58;22;20;
62591;PMS5003;48659;41.622;2.276;2023-04-06T09:09:25;27;24;
62591;PMS5003;48659;41.622;2.276;2023-04-06T09:11:53;19;19;
62591;PMS5003;48659;41.622;2.276;2023-04-06T09:14:33;19;18;
62591;PMS5003;48659;41.622;2.276;2023-04-06T09:17:02;21;18;
62591;PMS5003;48659;41.622;2.276;2023-04-06T09:19:30;19;19;
62591;PMS5003;48659;41.622;2.276;2023-04-06T09:22:02;26;23;
62591;PMS5003;48659;41.622;2.276;2023-04-06T09:24:39;23;20;
62591;PMS5003;48659;41.622;2.276;2023-04-06T09:27:09;19;19;
62591;PMS5003;48659;41.622;2.276;2023-04-06T09:29:36;15;15;
62591;PMS5003;48659;41.622;2.276;2023-04-06T09:32:04;16;15;
62591;PMS5003;48659;41.622;2.276;2023-04-06T09:34:32;12;11;
62591;PMS5003;48659;41.622;2.276;2023-04-06T09:37:01;10;10;
62591;PMS5003;48659;41.622;2.276;2023-04-06T09:39:39;9;9;
62591;PMS5003;48659;41.622;2.276;2023-04-06T09:42:07;13;12;
62591;PMS5003;48659;41.622;2.276;2023-04-06T09:44:35;12;12;
62591;PMS5003;48659;41.622;2.276;2023-04-06T09:47:03;16;14;
62591;PMS5003;48659;41.622;2.276;2023-04-06T09:49:34;12;12;
62591;PMS5003;48659;41.622;2.276;2023-04-06T09:52:04;15;14;
62591;PMS5003;48659;41.622;2.276;2023-04-06T09:54:33;13;13;
62591;PMS5003;48659;41.622;2.276;2023-04-06T09:57:04;16;13;
62591;PMS5003;48659;41.622;2.276;2023-04-06T09:59:38;14;12;
62591;PMS5003;48659;41.622;2.276;2023-04-06T10:02:14;17;15;
62591;PMS5003;48659;41.622;2.276;2023-04-06T10:04:49;11;11;
62591;PMS5003;48659;41.622;2.276;2023-04-06T10:07:22;13;13;
62591;PMS5003;48659;41.622;2.276;2023-04-06T10:09:49;12;12;
62591;PMS5003;48659;41.622;2.276;2023-04-06T10:12:20;11;10;
62591;PMS5003;48659;41.622;2.276;2023-04-06T10:14:47;11;10;
62591;PMS5003;48659;41.622;2.276;2023-04-06T10:17:16;12;12;
62591;PMS5003;48659;41.622;2.276;2023-04-06T10:19:46;13;12;
62591;PMS5003;48659;41.622;2.276;2023-04-06T10:22:20;12;12;
62591;PMS5003;48659;41.622;2.276;2023-04-06T10:24:53;13;12;
62591;PMS5003;48659;41.622;2.276;2023-04-06T10:27:29;13;11;
62591;PMS5003;48659;41.622;2.276;2023-04-06T10:30:02;19;18;
62591;PMS5003;48659;41.622;2.276;2023-04-06T10:32:32;12;12;
62591;PMS5003;48659;41.622;2.276;2023-04-06T10:35:04;9;9;
62591;PMS5003;48659;41.622;2.276;2023-04-06T10:37:45;11;11;
62591;PMS5003;48659;41.622;2.276;2023-04-06T10:40:19;9;9;
62591;PMS5003;48659;41.622;2.276;2023-04-06T10:42:49;10;10;
62591;PMS5003;48659;41.622;2.276;2023-04-06T10:45:20;8;8;
62591;PMS5003;48659;41.622;2.276;2023-04-06T10:47:49;10;10;
62591;PMS5003;48659;41.622;2.276;2023-04-06T10:50:18;11;11;
62591;PMS5003;48659;41.622;2.276;2023-04-06T10:52:46;14;10;
62591;PMS5003;48659;41.622;2.276;2023-04-06T10:55:25;13;12;
62591;PMS5003;48659;41.622;2.276;2023-04-06T10:57:54;11;11;
62591;PMS5003;48659;41.622;2.276;2023-04-06T11:00:21;15;13;
62591;PMS5003;48659;41.622;2.276;2023-04-06T11:02:49;13;11;
62591;PMS5003;48659;41.622;2.276;2023-04-06T11:05:16;10;10;
62591;PMS5003;48659;41.622;2.276;2023-04-06T11:07:44;13;12;
62591;PMS5003;48659;41.622;2.276;2023-04-06T11:10:11;8;8;
62591;PMS5003;48659;41.622;2.276;2023-04-06T11:12:51;10;10;
62591;PMS5003;48659;41.622;2.276;2023-04-06T11:15:20;11;10;
62591;PMS5003;48659;41.622;2.276;2023-04-06T11:17:47;9;9;
62591;PMS5003;48659;41.622;2.276;2023-04-06T11:20:15;9;9;
62591;PMS5003;48659;41.622;2.276;2023-04-06T11:22:51;12;12;
62591;PMS5003;48659;41.622;2.276;2023-04-06T11:25:18;8;8;
62591;PMS5003;48659;41.622;2.276;2023-04-06T11:27:46;11;10;
62591;PMS5003;48659;41.622;2.276;2023-04-06T11:30:14;11;10;
62591;PMS5003;48659;41.622;2.276;2023-04-06T11:32:42;11;11;
62591;PMS5003;48659;41.622;2.276;2023-04-06T11:35:11;11;8;
62591;PMS5003;48659;41.622;2.276;2023-04-06T11:37:45;9;9;
62591;PMS5003;48659;41.622;2.276;2023-04-06T11:40:13;11;11;
62591;PMS5003;48659;41.622;2.276;2023-04-06T11:42:41;9;9;
62591;PMS5003;48659;41.622;2.276;2023-04-06T11:45:08;12;12;
62591;PMS5003;48659;41.622;2.276;2023-04-06T11:47:36;16;15;
62591;PMS5003;48659;41.622;2.276;2023-04-06T11:50:07;14;13;
62591;PMS5003;48659;41.622;2.276;2023-04-06T11:52:35;14;14;
62591;PMS5003;48659;41.622;2.276;2023-04-06T11:55:12;14;14;
62591;PMS5003;48659;41.622;2.276;2023-04-06T11:57:40;17;15;
62591;PMS5003;48659;41.622;2.276;2023-04-06T12:00:08;15;14;
62591;PMS5003;48659;41.622;2.276;2023-04-06T12:02:37;17;14;
62591;PMS5003;48659;41.622;2.276;2023-04-06T12:05:05;21;19;
62591;PMS5003;48659;41.622;2.276;2023-04-06T12:07:33;19;17;
62591;PMS5003;48659;41.622;2.276;2023-04-06T12:10:01;18;16;
62591;PMS5003;48659;41.622;2.276;2023-04-06T12:12:29;15;14;
62591;PMS5003;48659;41.622;2.276;2023-04-06T12:14:57;17;14;
62591;PMS5003;48659;41.622;2.276;2023-04-06T12:17:25;16;14;
62591;PMS5003;48659;41.622;2.276;2023-04-06T12:19:52;19;14;
62591;PMS5003;48659;41.622;2.276;2023-04-06T12:22:20;15;15;
62591;PMS5003;48659;41.622;2.276;2023-04-06T12:24:48;15;15;
62591;PMS5003;48659;41.622;2.276;2023-04-06T12:27:14;15;13;
62591;PMS5003;48659;41.622;2.276;2023-04-06T12:29:42;19;19;
62591;PMS5003;48659;41.622;2.276;2023-04-06T12:32:10;15;13;
62591;PMS5003;48659;41.622;2.276;2023-04-06T12:34:37;19;17;
62591;PMS5003;48659;41.622;2.276;2023-04-06T12:37:06;12;10;
62591;PMS5003;48659;41.622;2.276;2023-04-06T12:39:33;10;10;
62591;PMS5003;48659;41.622;2.276;2023-04-06T12:42:01;14;13;
62591;PMS5003;48659;41.622;2.276;2023-04-06T12:44:29;13;13;
62591;PMS5003;48659;41.622;2.276;2023-04-06T12:46:56;14;11;
62591;PMS5003;48659;41.622;2.276;2023-04-06T12:49:23;13;12;
62591;PMS5003;48659;41.622;2.276;2023-04-06T12:51:50;13;13;
62591;PMS5003;48659;41.622;2.276;2023-04-06T12:54:17;12;12;
62591;PMS5003;48659;41.622;2.276;2023-04-06T12:56:45;16;15;
62591;PMS5003;48659;41.622;2.276;2023-04-06T12:59:12;11;11;
62591;PMS5003;48659;41.622;2.276;2023-04-06T13:01:39;16;14;
62591;PMS5003;48659;41.622;2.276;2023-04-06T13:04:06;12;12;
62591;PMS5003;48659;41.622;2.276;2023-04-06T13:06:33;9;9;
62591;PMS5003;48659;41.622;2.276;2023-04-06T13:09:00;16;12;
62591;PMS5003;48659;41.622;2.276;2023-04-06T13:11:27;12;10;
62591;PMS5003;48659;41.622;2.276;2023-04-06T13:13:55;13;13;
62591;PMS5003;48659;41.622;2.276;2023-04-06T13:16:23;11;11;
62591;PMS5003;48659;41.622;2.276;2023-04-06T13:18:51;12;12;
62591;PMS5003;48659;41.622;2.276;2023-04-06T13:21:18;13;11;
62591;PMS5003;48659;41.622;2.276;2023-04-06T13:23:45;12;12;
62591;PMS5003;48659;41.622;2.276;2023-04-06T13:26:14;9;9;
62591;PMS5003;48659;41.622;2.276;2023-04-06T13:28:41;11;11;
62591;PMS5003;48659;41.622;2.276;2023-04-06T13:31:09;12;11;
62591;PMS5003;48659;41.622;2.276;2023-04-06T13:33:36;10;10;
62591;PMS5003;48659;41.622;2.276;2023-04-06T13:36:04;11;9;
62591;PMS5003;48659;41.622;2.276;2023-04-06T13:38:34;9;7;
62591;PMS5003;48659;41.622;2.276;2023-04-06T13:41:01;11;11;
62591;PMS5003;48659;41.622;2.276;2023-04-06T13:43:29;9;8;
62591;PMS5003;48659;41.622;2.276;2023-04-06T13:46:02;10;8;
62591;PMS5003;48659;41.622;2.276;2023-04-06T13:48:30;8;8;
62591;PMS5003;48659;41.622;2.276;2023-04-06T13:50:58;10;7;
62591;PMS5003;48659;41.622;2.276;2023-04-06T13:53:34;7;7;
62591;PMS5003;48659;41.622;2.276;2023-04-06T13:56:01;6;6;
62591;PMS5003;48659;41.622;2.276;2023-04-06T13:58:29;5;5;
62591;PMS5003;48659;41.622;2.276;2023-04-06T14:01:01;8;7;
62591;PMS5003;48659;41.622;2.276;2023-04-06T14:03:29;6;6;
62591;PMS5003;48659;41.622;2.276;2023-04-06T14:05:56;7;7;
62591;PMS5003;48659;41.622;2.276;2023-04-06T14:08:23;7;7;
62591;PMS5003;48659;41.622;2.276;2023-04-06T14:10:50;7;6;
62591;PMS5003;48659;41.622;2.276;2023-04-06T14:13:18;7;6;
62591;PMS5003;48659;41.622;2.276;2023-04-06T14:15:44;8;7;
62591;PMS5003;48659;41.622;2.276;2023-04-06T14:18:11;7;5;
62591;PMS5003;48659;41.622;2.276;2023-04-06T14:20:40;8;8;
62591;PMS5003;48659;41.622;2.276;2023-04-06T14:23:08;7;7;
62591;PMS5003;48659;41.622;2.276;2023-04-06T14:25:35;7;7;
62591;PMS5003;48659;41.622;2.276;2023-04-06T14:28:02;5;5;
62591;PMS5003;48659;41.622;2.276;2023-04-06T14:30:29;8;5;
62591;PMS5003;48659;41.622;2.276;2023-04-06T14:32:57;6;5;
62591;PMS5003;48659;41.622;2.276;2023-04-06T14:35:24;7;5;
62591;PMS5003;48659;41.622;2.276;2023-04-06T14:37:51;7;6;
62591;PMS5003;48659;41.622;2.276;2023-04-06T14:40:19;6;4;
62591;PMS5003;48659;41.622;2.276;2023-04-06T14:42:46;4;4;
62591;PMS5003;48659;41.622;2.276;2023-04-06T14:45:13;7;5;
62591;PMS5003;48659;41.622;2.276;2023-04-06T14:47:41;5;5;
62591;PMS5003;48659;41.622;2.276;2023-04-06T14:50:08;6;6;
62591;PMS5003;48659;41.622;2.276;2023-04-06T14:52:36;9;5;
62591;PMS5003;48659;41.622;2.276;2023-04-06T14:55:03;4;4;
62591;PMS5003;48659;41.622;2.276;2023-04-06T14:57:30;8;5;
62591;PMS5003;48659;41.622;2.276;2023-04-06T14:59:57;5;4;
62591;PMS5003;48659;41.622;2.276;2023-04-06T15:02:24;4;4;
62591;PMS5003;48659;41.622;2.276;2023-04-06T15:04:52;6;4;
62591;PMS5003;48659;41.622;2.276;2023-04-06T15:07:20;5;3;
62591;PMS5003;48659;41.622;2.276;2023-04-06T15:09:47;5;5;
62591;PMS5003;48659;41.622;2.276;2023-04-06T15:12:13;5;5;
62591;PMS5003;48659;41.622;2.276;2023-04-06T15:14:40;5;4;
62591;PMS5003;48659;41.622;2.276;2023-04-06T15:17:08;5;5;
62591;PMS5003;48659;41.622;2.276;2023-04-06T15:19:35;6;5;
62591;PMS5003;48659;41.622;2.276;2023-04-06T15:22:03;3;3;
62591;PMS5003;48659;41.622;2.276;2023-04-06T15:24:30;5;4;
62591;PMS5003;48659;41.622;2.276;2023-04-06T15:26:57;7;5;
62591;PMS5003;48659;41.622;2.276;2023-04-06T15:29:25;5;5;
62591;PMS5003;48659;41.622;2.276;2023-04-06T15:31:52;6;5;
62591;PMS5003;48659;41.622;2.276;2023-04-06T15:34:21;5;5;
62591;PMS5003;48659;41.622;2.276;2023-04-06T15:36:48;3;3;
62591;PMS5003;48659;41.622;2.276;2023-04-06T15:39:17;4;4;
62591;PMS5003;48659;41.622;2.276;2023-04-06T15:41:44;6;6;
62591;PMS5003;48659;41.622;2.276;2023-04-06T15:44:12;6;6;
62591;PMS5003;48659;41.622;2.276;2023-04-06T15:46:40;4;4;
62591;PMS5003;48659;41.622;2.276;2023-04-06T15:49:08;3;3;
62591;PMS5003;48659;41.622;2.276;2023-04-06T15:51:36;4;4;
62591;PMS5003;48659;41.622;2.276;2023-04-06T15:54:03;4;4;
62591;PMS5003;48659;41.622;2.276;2023-04-06T15:56:31;5;5;
62591;PMS5003;48659;41.622;2.276;2023-04-06T15:58:59;6;4;
62591;PMS5003;48659;41.622;2.276;2023-04-06T16:01:26;5;4;
62591;PMS5003;48659;41.622;2.276;2023-04-06T16:03:54;5;4;
62591;PMS5003;48659;41.622;2.276;2023-04-06T16:06:22;4;4;
62591;PMS5003;48659;41.622;2.276;2023-04-06T16:08:49;4;3;
62591;PMS5003;48659;41.622;2.276;2023-04-06T16:11:16;5;5;
62591;PMS5003;48659;41.622;2.276;2023-04-06T16:13:44;5;5;
62591;PMS5003;48659;41.622;2.276;2023-04-06T16:16:11;4;4;
62591;PMS5003;48659;41.622;2.276;2023-04-06T16:18:38;3;3;
62591;PMS5003;48659;41.622;2.276;2023-04-06T16:21:05;5;3;
62591;PMS5003;48659;41.622;2.276;2023-04-06T16:23:32;5;5;
62591;PMS5003;48659;41.622;2.276;2023-04-06T16:26:06;4;4;
62591;PMS5003;48659;41.622;2.276;2023-04-06T16:28:37;4;4;